Time;durP1;ratioP1;P1;durP2;ratioP2;P2;SDS_P1;SDS_P2;PMS_P1;PMS_P2;Temp;Humidity;BMP_temperature;BMP_pressure;BME280_temperature;BME280_humidity;BME280_pressure;Samples;Min_cycle;Max_cycle;Signal;HPM_P1;HPM_P2
2022/12/09 00:02:22;;;;;;;38.88;22.10;;;6.50;99.90;;;;;;5009534;28;20497;-82
2022/12/09 00:04:49;;;;;;;37.63;21.48;;;6.50;99.90;;;;;;5010078;28;20044;-81
2022/12/09 00:07:16;;;;;;;33.88;20.42;;;6.50;99.90;;;;;;5009208;28;20034;-81
2022/12/09 00:09:43;;;;;;;37.15;21.48;;;6.50;99.90;;;;;;5008959;28;20042;-81
2022/12/09 00:12:10;;;;;;;36.53;20.83;;;6.60;99.90;;;;;;5006869;28;20042;-81
2022/12/09 00:14:38;;;;;;;36.83;21.15;;;6.50;99.90;;;;;;5009947;28;20052;-81
2022/12/09 00:17:05;;;;;;;35.33;20.95;;;6.50;99.90;;;;;;4995177;28;20054;-82
2022/12/09 00:19:33;;;;;;;38.50;21.42;;;6.50;99.90;;;;;;5018434;28;20046;-82
2022/12/09 00:22:00;;;;;;;35.85;20.88;;;6.50;99.90;;;;;;5009120;28;20050;-81
2022/12/09 00:24:27;;;;;;;33.90;20.05;;;6.50;99.90;;;;;;5009621;28;20517;-81
2022/12/09 00:26:53;;;;;;;32.58;20.30;;;6.50;99.90;;;;;;5010138;28;20038;-81
2022/12/09 00:29:20;;;;;;;36.20;20.38;;;6.50;99.90;;;;;;5006885;28;20501;-81
2022/12/09 00:31:48;;;;;;;35.22;20.73;;;6.50;99.90;;;;;;4997415;28;20038;-81
2022/12/09 00:34:15;;;;;;;35.08;20.73;;;6.50;99.90;;;;;;4991872;28;20064;-81
2022/12/09 00:36:42;;;;;;;34.88;21.23;;;6.50;99.90;;;;;;5009812;28;20052;-81
2022/12/09 00:39:11;;;;;;;40.28;21.08;;;6.50;99.90;;;;;;5009147;28;20495;-82
2022/12/09 00:41:38;;;;;;;37.45;21.42;;;6.50;99.90;;;;;;5009009;28;20430;-81
2022/12/09 00:44:05;;;;;;;35.50;21.40;;;6.50;99.90;;;;;;5011938;28;20401;-81
2022/12/09 00:46:32;;;;;;;35.65;21.63;;;6.50;99.90;;;;;;4991527;28;20046;-81
2022/12/09 00:49:00;;;;;;;34.63;21.77;;;6.50;99.90;;;;;;4996992;28;20064;-81
2022/12/09 00:51:27;;;;;;;31.88;20.08;;;6.50;99.90;;;;;;4991095;28;20049;-81
2022/12/09 00:53:54;;;;;;;34.33;21.13;;;6.50;99.90;;;;;;5008723;28;20046;-81
2022/12/09 00:56:22;;;;;;;39.17;21.30;;;6.50;99.90;;;;;;4991434;28;20046;-82
2022/12/09 00:58:49;;;;;;;35.90;21.80;;;6.50;99.90;;;;;;5007909;28;20033;-81
2022/12/09 01:01:16;;;;;;;41.40;21.80;;;6.50;99.90;;;;;;5001284;28;20136;-81
2022/12/09 01:03:43;;;;;;;35.60;21.77;;;6.50;99.90;;;;;;5006668;28;20073;-81
2022/12/09 01:06:20;;;;;;;39.88;22.10;;;6.50;99.90;;;;;;4991146;28;20045;-81
2022/12/09 01:08:47;;;;;;;39.88;22.00;;;6.50;99.90;;;;;;5007283;28;20042;-81
2022/12/09 01:11:17;;;;;;;39.15;21.52;;;6.50;99.90;;;;;;4989495;28;20077;-81
2022/12/09 01:13:45;;;;;;;39.22;21.38;;;6.50;99.90;;;;;;4989898;28;20104;-81
2022/12/09 01:16:17;;;;;;;35.15;21.27;;;6.50;99.90;;;;;;5008923;28;20465;-82
2022/12/09 01:18:45;;;;;;;35.25;20.58;;;6.50;99.90;;;;;;5007990;28;20625;-82
2022/12/09 01:21:13;;;;;;;40.92;21.67;;;6.50;99.90;;;;;;5002195;28;20045;-82
2022/12/09 01:23:40;;;;;;;35.95;21.17;;;6.50;99.90;;;;;;5009075;28;20065;-81
2022/12/09 01:26:08;;;;;;;37.05;21.30;;;6.50;99.90;;;;;;4990984;28;20053;-81
2022/12/09 01:28:38;;;;;;;35.80;21.10;;;6.50;99.90;;;;;;4991901;28;20119;-81
2022/12/09 01:31:06;;;;;;;33.95;20.27;;;6.50;99.90;;;;;;5009115;28;20038;-81
2022/12/09 01:33:33;;;;;;;38.22;21.90;;;6.50;99.90;;;;;;5008714;28;20499;-81
2022/12/09 01:36:00;;;;;;;34.38;20.42;;;6.50;99.90;;;;;;5007107;28;20042;-82
2022/12/09 01:38:28;;;;;;;39.83;22.73;;;6.50;99.90;;;;;;5022399;28;20485;-81
2022/12/09 01:40:55;;;;;;;37.22;21.13;;;6.50;99.90;;;;;;5008341;28;20073;-81
2022/12/09 01:43:22;;;;;;;34.78;20.77;;;6.50;99.90;;;;;;5008920;28;20050;-81
2022/12/09 01:45:50;;;;;;;37.40;22.08;;;6.50;99.90;;;;;;5009229;28;20056;-81
2022/12/09 01:48:19;;;;;;;33.05;20.98;;;6.50;99.90;;;;;;5006554;28;20030;-81
2022/12/09 01:50:49;;;;;;;37.58;22.83;;;6.50;99.90;;;;;;5022974;28;20476;-81
2022/12/09 01:53:17;;;;;;;37.80;22.05;;;6.50;99.90;;;;;;4983398;28;20097;-81
2022/12/09 01:55:45;;;;;;;33.58;21.25;;;6.50;99.90;;;;;;4992390;28;20038;-81
2022/12/09 01:58:13;;;;;;;38.50;21.45;;;6.50;99.90;;;;;;5012129;28;20357;-81
2022/12/09 02:00:40;;;;;;;34.35;21.85;;;6.50;99.90;;;;;;5001555;28;20502;-82
2022/12/09 02:03:07;;;;;;;41.78;21.08;;;6.50;99.90;;;;;;5011438;28;20126;-82
2022/12/09 02:05:35;;;;;;;33.08;21.23;;;6.50;99.90;;;;;;4993208;28;20623;-81
2022/12/09 02:08:02;;;;;;;38.53;20.85;;;6.40;99.90;;;;;;4994007;28;20046;-82
2022/12/09 02:10:29;;;;;;;38.40;21.52;;;6.40;99.90;;;;;;5009160;28;20034;-81
2022/12/09 02:13:07;;;;;;;37.20;20.75;;;6.50;99.90;;;;;;5004832;23;20045;-87
2022/12/09 02:15:39;;;;;;;36.55;20.95;;;6.50;99.90;;;;;;5011132;28;20054;-87
2022/12/09 02:18:14;;;;;;;37.05;21.13;;;6.50;99.90;;;;;;5002923;28;20034;-87
2022/12/09 02:20:44;;;;;;;42.38;22.77;;;6.50;99.90;;;;;;5008655;28;20049;-87
2022/12/09 02:23:16;;;;;;;37.00;21.87;;;6.50;99.90;;;;;;5010098;28;20038;-87
2022/12/09 02:25:47;;;;;;;35.65;21.83;;;6.50;99.90;;;;;;5019486;28;20324;-86
2022/12/09 02:28:36;;;;;;;40.35;23.17;;;6.50;99.90;;;;;;5017335;28;20037;-86
2022/12/09 02:31:14;;;;;;;35.08;20.92;;;6.50;99.90;;;;;;5010092;28;20056;-86
2022/12/09 02:33:55;;;;;;;43.90;21.60;;;6.50;99.90;;;;;;5008464;28;20096;-87
2022/12/09 02:36:24;;;;;;;35.60;21.53;;;6.50;99.90;;;;;;5012073;28;20046;-86
2022/12/09 02:38:52;;;;;;;37.55;21.10;;;6.50;99.90;;;;;;5010531;28;20072;-87
2022/12/09 02:41:23;;;;;;;38.33;21.30;;;6.50;99.90;;;;;;5010587;28;20773;-87
2022/12/09 02:43:53;;;;;;;36.83;21.65;;;6.50;99.90;;;;;;5010830;28;20056;-87
2022/12/09 02:46:27;;;;;;;40.75;22.30;;;6.40;99.90;;;;;;5016329;28;20060;-87
2022/12/09 02:48:57;;;;;;;39.78;22.95;;;6.60;99.90;;;;;;5018659;28;20046;-87
2022/12/09 02:51:27;;;;;;;38.80;21.25;;;6.50;99.90;;;;;;5021302;28;20052;-87
2022/12/09 02:53:57;;;;;;;41.90;22.08;;;6.50;99.90;;;;;;5011240;28;20057;-86
2022/12/09 02:56:25;;;;;;;40.70;22.33;;;6.40;99.90;;;;;;5020389;28;20119;-88
2022/12/09 02:58:52;;;;;;;37.83;22.55;;;6.50;99.90;;;;;;5009056;28;20300;-87
2022/12/09 03:01:28;;;;;;;38.40;21.52;;;6.40;99.90;;;;;;5002280;28;20077;-86
2022/12/09 03:03:56;;;;;;;41.38;22.42;;;6.40;99.90;;;;;;5012283;28;20556;-87
2022/12/09 03:06:28;;;;;;;33.97;21.55;;;6.50;99.90;;;;;;5020110;28;20588;-87
2022/12/09 03:08:58;;;;;;;38.35;22.67;;;6.40;99.90;;;;;;5012122;28;20030;-88
2022/12/09 03:11:26;;;;;;;39.72;22.80;;;6.50;99.90;;;;;;5009240;28;20544;-87
2022/12/09 03:13:58;;;;;;;37.35;21.98;;;6.50;99.90;;;;;;5010383;28;20498;-87
2022/12/09 03:16:29;;;;;;;42.25;23.33;;;6.50;99.90;;;;;;5018801;28;20466;-88
2022/12/09 03:19:01;;;;;;;37.83;22.45;;;6.50;99.90;;;;;;5011552;28;20471;-86
2022/12/09 03:21:29;;;;;;;37.33;22.70;;;6.50;99.90;;;;;;5008338;28;20057;-87
2022/12/09 03:23:57;;;;;;;40.47;22.70;;;6.50;99.90;;;;;;5011676;28;20049;-87
2022/12/09 03:26:25;;;;;;;39.30;22.40;;;6.40;99.90;;;;;;5021517;28;20045;-87
2022/12/09 03:28:55;;;;;;;41.22;22.98;;;6.50;99.90;;;;;;5012567;28;20414;-87
2022/12/09 03:31:24;;;;;;;38.55;22.95;;;6.40;99.90;;;;;;5009880;28;20074;-87
2022/12/09 03:33:53;;;;;;;44.38;23.08;;;6.50;99.90;;;;;;5010228;28;20041;-87
2022/12/09 03:36:23;;;;;;;36.80;22.27;;;6.40;99.90;;;;;;5008084;28;20873;-88
2022/12/09 03:38:52;;;;;;;36.72;22.60;;;6.40;99.90;;;;;;5009246;28;20038;-87
2022/12/09 03:41:24;;;;;;;41.45;22.80;;;6.40;99.90;;;;;;5008044;28;20136;-87
2022/12/09 03:43:54;;;;;;;36.42;21.33;;;6.40;99.90;;;;;;5008530;28;20050;-87
2022/12/09 03:46:22;;;;;;;38.08;22.73;;;6.40;99.90;;;;;;5019446;28;20053;-87
2022/12/09 03:48:49;;;;;;;40.55;21.15;;;6.30;99.90;;;;;;5011559;28;20042;-88
2022/12/09 03:51:19;;;;;;;37.58;21.58;;;6.30;99.90;;;;;;5009651;28;20064;-87
2022/12/09 03:53:55;;;;;;;38.88;21.52;;;6.30;99.90;;;;;;5009762;28;20045;-87
2022/12/09 03:56:23;;;;;;;39.13;22.55;;;6.30;99.90;;;;;;5018443;28;20092;-86
2022/12/09 04:02:29;;;;;;;43.00;21.75;;;6.30;99.90;;;;;;4898571;29;20550;-86
2022/12/09 04:04:56;;;;;;;40.50;22.75;;;6.30;99.90;;;;;;4949753;28;20074;-87
2022/12/09 04:07:23;;;;;;;38.42;22.38;;;6.20;99.90;;;;;;4952038;28;20062;-87
2022/12/09 04:09:51;;;;;;;39.38;22.35;;;6.30;99.90;;;;;;4948051;29;20120;-87
2022/12/09 04:12:18;;;;;;;37.30;22.15;;;6.30;99.90;;;;;;4946383;28;20081;-86
2022/12/09 04:14:48;;;;;;;40.88;21.80;;;6.30;99.90;;;;;;4953474;28;20039;-87
2022/12/09 04:17:18;;;;;;;39.55;23.20;;;6.30;99.90;;;;;;4955366;28;20051;-86
2022/12/09 04:19:45;;;;;;;38.78;21.63;;;6.20;99.90;;;;;;4946806;29;20056;-87
2022/12/09 04:22:12;;;;;;;36.15;21.00;;;6.20;99.90;;;;;;4948674;29;20050;-86
2022/12/09 04:24:39;;;;;;;38.30;21.50;;;6.20;99.90;;;;;;4926517;29;20043;-87
2022/12/09 04:27:07;;;;;;;35.60;21.08;;;6.20;99.90;;;;;;4945545;28;20059;-87
2022/12/09 04:29:34;;;;;;;35.33;21.35;;;6.20;99.90;;;;;;4934452;29;20040;-87
2022/12/09 04:32:01;;;;;;;40.90;22.23;;;6.20;99.90;;;;;;4942111;29;20050;-86
2022/12/09 04:34:28;;;;;;;37.90;20.83;;;6.20;99.90;;;;;;4955028;28;20073;-86
2022/12/09 04:36:54;;;;;;;43.25;21.30;;;6.20;99.90;;;;;;4951504;28;20040;-87
2022/12/09 04:39:21;;;;;;;37.28;21.17;;;6.20;99.90;;;;;;4977702;28;20061;-87
2022/12/09 04:41:48;;;;;;;36.50;20.73;;;6.20;99.90;;;;;;5009859;28;20041;-86
2022/12/09 04:44:17;;;;;;;41.85;22.95;;;6.10;99.90;;;;;;5015600;28;20476;-86
2022/12/09 04:46:43;;;;;;;41.72;22.08;;;6.20;99.90;;;;;;5018534;28;20518;-86
2022/12/09 04:49:10;;;;;;;39.33;22.77;;;6.20;99.90;;;;;;5025230;28;20095;-87
2022/12/09 04:51:37;;;;;;;34.45;20.98;;;6.20;99.90;;;;;;5009363;28;20046;-87
2022/12/09 04:54:04;;;;;;;39.78;22.90;;;6.10;99.90;;;;;;5016457;28;20124;-86
2022/12/09 04:56:31;;;;;;;35.40;20.63;;;6.20;99.90;;;;;;5016960;28;20055;-87
2022/12/09 04:59:00;;;;;;;33.42;20.13;;;6.20;99.90;;;;;;5008947;28;20044;-87
2022/12/09 05:01:28;;;;;;;39.65;22.50;;;6.20;99.90;;;;;;5009782;28;20049;-87
2022/12/09 05:03:55;;;;;;;34.63;19.48;;;6.20;99.90;;;;;;5010913;28;20414;-86
2022/12/09 05:06:23;;;;;;;35.45;19.25;;;6.20;99.90;;;;;;5011231;28;20052;-84
2022/12/09 05:08:50;;;;;;;37.47;19.15;;;6.20;99.90;;;;;;5009355;28;20033;-88
2022/12/09 05:11:18;;;;;;;31.65;19.63;;;6.20;99.90;;;;;;5008622;28;20117;-86
2022/12/09 05:13:45;;;;;;;30.73;19.20;;;6.20;99.90;;;;;;5016534;28;20053;-88
2022/12/09 05:16:14;;;;;;;32.10;19.08;;;6.20;99.90;;;;;;5011231;28;20419;-88
2022/12/09 05:18:43;;;;;;;31.52;18.38;;;6.20;99.90;;;;;;5004635;28;20498;-87
2022/12/09 05:21:13;;;;;;;34.20;19.63;;;6.20;99.90;;;;;;5007974;28;20128;-87
2022/12/09 05:23:40;;;;;;;34.97;19.50;;;6.10;99.90;;;;;;5014190;28;20045;-86
2022/12/09 05:26:09;;;;;;;34.58;19.77;;;6.10;99.90;;;;;;5011961;28;20053;-84
2022/12/09 05:28:36;;;;;;;38.90;20.23;;;6.10;99.90;;;;;;5008780;28;20546;-85
2022/12/09 05:31:04;;;;;;;34.45;19.48;;;6.10;99.90;;;;;;5007347;28;20175;-84
2022/12/09 05:33:31;;;;;;;32.08;18.92;;;6.00;99.90;;;;;;5006976;28;20503;-87
2022/12/09 05:35:59;;;;;;;30.08;18.60;;;6.00;99.90;;;;;;5010196;28;20045;-85
2022/12/09 05:38:26;;;;;;;31.38;19.00;;;6.00;99.90;;;;;;5004129;28;20117;-84
2022/12/09 05:40:53;;;;;;;31.00;17.75;;;5.90;99.90;;;;;;5005235;28;20030;-86
2022/12/09 05:43:20;;;;;;;32.60;17.63;;;5.90;99.90;;;;;;5008417;28;20072;-85
2022/12/09 05:45:47;;;;;;;30.90;18.90;;;5.80;99.90;;;;;;5010698;28;20041;-86
2022/12/09 05:48:14;;;;;;;36.00;18.15;;;5.80;99.90;;;;;;5008034;28;20121;-85
2022/12/09 05:50:41;;;;;;;28.50;17.85;;;5.70;99.90;;;;;;5004352;28;20038;-85
2022/12/09 05:53:10;;;;;;;29.48;17.45;;;5.70;99.90;;;;;;5005749;28;20037;-86
2022/12/09 05:55:40;;;;;;;36.22;18.35;;;5.70;99.90;;;;;;5011578;28;20050;-84
2022/12/09 05:58:07;;;;;;;32.58;18.85;;;5.70;99.90;;;;;;5005892;28;20115;-85
2022/12/09 06:00:34;;;;;;;35.67;17.58;;;5.60;99.90;;;;;;5001633;28;20037;-87
2022/12/09 06:03:04;;;;;;;35.00;17.45;;;5.60;99.90;;;;;;4995861;28;20129;-87
2022/12/09 06:05:31;;;;;;;30.05;17.70;;;5.50;99.90;;;;;;5000415;28;20065;-87
2022/12/09 06:07:58;;;;;;;31.67;17.23;;;5.50;99.90;;;;;;5007460;28;20522;-87
2022/12/09 06:10:27;;;;;;;30.33;17.77;;;5.40;99.90;;;;;;5007396;28;20498;-89
2022/12/09 06:12:54;;;;;;;28.30;17.42;;;5.40;99.90;;;;;;5007113;28;20125;-89
2022/12/09 06:15:21;;;;;;;29.25;17.02;;;5.40;99.90;;;;;;5009070;28;20506;-88
2022/12/09 06:17:48;;;;;;;32.97;19.17;;;5.40;99.90;;;;;;5022120;28;20052;-88
2022/12/09 06:20:15;;;;;;;31.70;19.27;;;5.30;99.90;;;;;;5003973;28;20044;-88
2022/12/09 06:22:42;;;;;;;34.13;18.70;;;5.30;99.90;;;;;;5007312;28;20091;-86
2022/12/09 06:25:10;;;;;;;34.38;18.88;;;5.30;99.90;;;;;;5006353;28;20069;-87
2022/12/09 06:27:38;;;;;;;32.22;18.55;;;5.30;99.90;;;;;;5024186;28;20033;-87
2022/12/09 06:30:06;;;;;;;35.97;19.17;;;5.20;99.90;;;;;;5006742;28;20042;-87
2022/12/09 06:32:33;;;;;;;36.50;18.10;;;5.20;99.90;;;;;;5006873;28;20048;-88
2022/12/09 06:35:00;;;;;;;28.38;17.08;;;5.20;99.90;;;;;;5004047;28;20509;-87
2022/12/09 06:37:27;;;;;;;33.70;18.17;;;5.10;99.90;;;;;;5003683;28;20060;-87
2022/12/09 06:39:54;;;;;;;31.23;18.42;;;5.10;99.90;;;;;;5014327;28;20091;-87
2022/12/09 06:42:21;;;;;;;30.77;18.65;;;5.10;99.90;;;;;;5010587;28;20057;-88
2022/12/09 06:44:49;;;;;;;31.52;17.95;;;5.00;99.90;;;;;;5009804;28;20140;-87
2022/12/09 06:47:22;;;;;;;30.33;18.25;;;5.00;99.90;;;;;;5022231;28;20554;-87
2022/12/09 06:49:51;;;;;;;28.70;17.67;;;5.00;99.90;;;;;;5011136;28;20116;-86
2022/12/09 06:52:18;;;;;;;28.83;17.45;;;5.00;99.90;;;;;;5022650;28;20045;-88
2022/12/09 06:54:45;;;;;;;30.77;17.95;;;4.90;99.90;;;;;;5025385;28;20048;-87
2022/12/09 06:57:12;;;;;;;33.50;18.23;;;4.90;99.90;;;;;;5019744;28;20041;-88
2022/12/09 06:59:39;;;;;;;34.97;19.10;;;4.90;99.90;;;;;;5011871;28;20042;-88
2022/12/09 07:02:09;;;;;;;30.85;18.52;;;4.90;99.90;;;;;;5010267;28;20077;-88
2022/12/09 07:04:36;;;;;;;31.67;18.55;;;4.80;99.90;;;;;;5006580;28;20144;-86
2022/12/09 07:07:02;;;;;;;33.20;18.65;;;4.90;99.90;;;;;;5012273;28;20045;-86
2022/12/09 07:09:39;;;;;;;34.75;18.48;;;4.80;99.90;;;;;;5008729;28;20037;-87
2022/12/09 07:12:09;;;;;;;36.88;18.77;;;4.90;99.90;;;;;;5007775;28;20115;-87
2022/12/09 07:14:36;;;;;;;35.17;20.15;;;4.80;99.90;;;;;;5007654;28;20042;-87
2022/12/09 07:17:03;;;;;;;32.58;18.55;;;4.80;99.90;;;;;;5019893;28;20379;-87
2022/12/09 07:19:32;;;;;;;32.28;19.02;;;4.80;99.90;;;;;;5009165;28;20038;-88
2022/12/09 07:21:59;;;;;;;34.90;19.08;;;4.80;99.90;;;;;;5007068;28;20447;-86
2022/12/09 07:24:26;;;;;;;31.73;18.95;;;4.80;99.90;;;;;;5000378;28;20523;-87
2022/12/09 07:26:53;;;;;;;39.90;21.42;;;4.70;99.90;;;;;;5003639;28;20618;-88
2022/12/09 07:29:20;;;;;;;42.30;23.65;;;4.80;99.90;;;;;;5002305;28;20045;-87
2022/12/09 07:31:47;;;;;;;37.28;21.42;;;4.70;99.90;;;;;;5008571;28;20629;-87
2022/12/09 07:34:14;;;;;;;42.25;24.17;;;4.70;99.90;;;;;;4999147;28;20414;-86
2022/12/09 07:36:43;;;;;;;51.03;25.73;;;4.70;99.90;;;;;;5002534;28;20516;-85
2022/12/09 07:39:13;;;;;;;45.67;25.48;;;4.70;99.90;;;;;;5001365;28;20042;-86
2022/12/09 07:41:40;;;;;;;39.35;23.80;;;4.70;99.90;;;;;;5001117;28;20046;-87
2022/12/09 07:44:07;;;;;;;41.20;24.05;;;4.70;99.90;;;;;;5009695;28;20497;-86
2022/12/09 07:46:34;;;;;;;38.70;21.52;;;4.70;99.90;;;;;;5006171;28;20045;-86
2022/12/09 07:49:03;;;;;;;43.22;23.25;;;4.70;99.90;;;;;;5003165;28;20053;-86
2022/12/09 07:51:30;;;;;;;41.20;24.05;;;4.70;99.90;;;;;;4996870;28;20433;-86
2022/12/09 07:53:58;;;;;;;42.88;23.80;;;4.70;99.90;;;;;;4999307;28;20042;-85
2022/12/09 07:56:27;;;;;;;37.28;21.85;;;4.80;99.90;;;;;;5002749;28;20128;-80
2022/12/09 07:58:55;;;;;;;38.05;21.95;;;4.80;99.90;;;;;;5002163;28;20065;-83
2022/12/09 08:01:24;;;;;;;42.78;24.23;;;4.80;99.90;;;;;;5005756;28;20132;-83
2022/12/09 08:03:52;;;;;;;45.15;23.52;;;4.80;99.90;;;;;;5003240;28;20102;-84
2022/12/09 08:06:20;;;;;;;43.75;24.17;;;4.80;99.90;;;;;;5006322;28;20149;-83
2022/12/09 08:08:48;;;;;;;42.80;23.27;;;4.80;99.90;;;;;;5001535;28;20064;-83
2022/12/09 08:11:18;;;;;;;38.28;21.33;;;4.90;99.90;;;;;;4997329;28;20569;-83
2022/12/09 08:13:46;;;;;;;39.22;21.55;;;4.90;99.90;;;;;;4996179;23;20141;-83
2022/12/09 08:16:15;;;;;;;37.75;21.90;;;4.90;99.90;;;;;;4969359;28;20049;-84
2022/12/09 08:18:43;;;;;;;49.00;22.50;;;4.90;99.90;;;;;;4965943;28;20154;-83
2022/12/09 08:21:11;;;;;;;41.80;23.33;;;4.90;99.90;;;;;;4969988;28;20076;-82
2022/12/09 08:23:39;;;;;;;36.38;20.83;;;4.90;99.90;;;;;;4968801;28;20050;-82
2022/12/09 08:26:06;;;;;;;37.55;20.50;;;4.90;99.90;;;;;;4966787;28;20134;-83
2022/12/09 08:28:34;;;;;;;38.25;21.73;;;5.00;99.90;;;;;;4955475;28;20126;-82
2022/12/09 08:31:07;;;;;;;38.78;20.00;;;5.00;99.90;;;;;;4972498;28;20050;-82
2022/12/09 08:33:34;;;;;;;38.60;20.60;;;5.00;99.90;;;;;;4969096;28;20527;-83
2022/12/09 08:36:01;;;;;;;35.95;20.63;;;5.00;99.90;;;;;;4968285;28;20042;-82
2022/12/09 08:38:30;;;;;;;37.95;22.73;;;5.00;99.90;;;;;;4970046;28;20073;-83
2022/12/09 08:40:57;;;;;;;39.25;22.63;;;5.00;99.90;;;;;;4978275;28;20403;-83
2022/12/09 08:43:24;;;;;;;41.92;22.88;;;5.10;99.90;;;;;;4978425;28;20035;-83
2022/12/09 08:45:52;;;;;;;40.33;22.48;;;5.10;99.90;;;;;;4974766;28;20526;-83
2022/12/09 08:48:19;;;;;;;40.20;22.02;;;5.10;99.90;;;;;;4981522;28;20047;-82
2022/12/09 08:50:46;;;;;;;39.70;21.15;;;5.10;99.90;;;;;;4971374;28;20039;-81
2022/12/09 08:53:13;;;;;;;35.45;20.27;;;5.10;99.90;;;;;;4967458;28;20051;-82
2022/12/09 08:55:41;;;;;;;37.10;20.50;;;5.10;99.90;;;;;;4964816;28;20133;-82
2022/12/09 08:58:08;;;;;;;38.97;21.63;;;5.10;99.90;;;;;;4970090;28;20046;-82
2022/12/09 09:00:34;;;;;;;34.38;20.48;;;5.20;99.90;;;;;;4975498;28;20045;-82
2022/12/09 09:03:03;;;;;;;34.38;20.27;;;5.20;99.90;;;;;;4985312;28;20498;-82
2022/12/09 09:05:30;;;;;;;36.72;20.70;;;5.20;99.90;;;;;;4969620;28;20869;-82
2022/12/09 09:07:57;;;;;;;35.83;20.73;;;5.20;99.90;;;;;;4969893;28;20161;-82
2022/12/09 09:10:24;;;;;;;34.28;20.63;;;5.20;99.90;;;;;;4975166;28;20403;-81
2022/12/09 09:12:50;;;;;;;39.65;21.95;;;5.20;99.90;;;;;;4979556;28;20058;-82
2022/12/09 09:15:18;;;;;;;38.35;22.77;;;5.20;99.90;;;;;;4968632;28;20074;-81
2022/12/09 09:17:44;;;;;;;38.60;21.90;;;5.20;99.90;;;;;;4969468;28;20047;-81
2022/12/09 09:20:13;;;;;;;37.72;22.52;;;5.30;99.90;;;;;;4972766;28;20077;-81
2022/12/09 09:22:40;;;;;;;35.72;21.33;;;5.20;99.90;;;;;;4982752;28;20162;-82
2022/12/09 09:25:07;;;;;;;39.67;22.35;;;5.30;99.90;;;;;;4963644;28;20049;-82
2022/12/09 09:27:34;;;;;;;41.75;22.17;;;5.30;99.90;;;;;;4969491;28;20093;-81
2022/12/09 09:30:02;;;;;;;40.65;22.45;;;5.30;99.90;;;;;;4970401;28;20118;-81
2022/12/09 09:32:31;;;;;;;38.30;22.42;;;5.30;99.90;;;;;;4969469;28;20123;-82
2022/12/09 09:34:58;;;;;;;41.90;24.05;;;5.30;99.90;;;;;;4970126;28;20050;-82
2022/12/09 09:37:26;;;;;;;42.78;23.60;;;5.40;99.90;;;;;;4969302;28;20113;-82
2022/12/09 09:39:53;;;;;;;41.30;23.17;;;5.40;99.90;;;;;;4973829;28;20078;-79
2022/12/09 09:42:24;;;;;;;39.72;22.15;;;5.40;99.90;;;;;;4976816;28;20488;-81
2022/12/09 09:44:51;;;;;;;;;;;5.40;99.90;;;;;;4969037;28;20057;-82
2022/12/09 09:47:25;;;;;;;36.25;21.15;;;5.40;99.90;;;;;;4967522;28;20409;-82
2022/12/09 09:49:54;;;;;;;37.40;21.05;;;5.40;99.90;;;;;;4968064;28;20720;-82
2022/12/09 09:52:23;;;;;;;37.15;21.58;;;5.40;99.90;;;;;;4957673;28;20470;-81
2022/12/09 09:54:51;;;;;;;41.08;22.00;;;5.40;99.90;;;;;;4975832;28;20130;-82
2022/12/09 09:57:23;;;;;;;38.50;22.58;;;5.50;99.90;;;;;;4969070;28;20054;-82
2022/12/09 10:00:03;;;;;;;46.97;24.90;;;5.50;99.90;;;;;;4965199;28;20055;-81
2022/12/09 10:02:53;;;;;;;43.10;24.65;;;5.60;99.90;;;;;;4972178;28;20100;-82
2022/12/09 10:05:23;;;;;;;45.40;26.00;;;5.50;99.90;;;;;;4967409;28;20059;-82
2022/12/09 10:07:53;;;;;;;48.90;27.05;;;5.60;99.90;;;;;;4969105;28;20101;-82
2022/12/09 10:10:33;;;;;;;44.72;24.75;;;5.60;99.90;;;;;;4973607;28;20046;-82
2022/12/09 10:13:07;;;;;;;40.00;23.67;;;5.60;99.90;;;;;;4979900;28;20485;-82
2022/12/09 10:15:38;;;;;;;39.03;23.35;;;5.60;99.90;;;;;;4977450;28;20125;-81
2022/12/09 10:18:16;;;;;;;44.08;25.20;;;5.60;99.90;;;;;;4961479;28;20070;-82
2022/12/09 10:20:44;;;;;;;41.70;24.30;;;5.70;99.90;;;;;;4968194;28;20053;-82
2022/12/09 10:23:13;;;;;;;42.13;23.42;;;5.70;99.90;;;;;;4972143;28;20042;-82
2022/12/09 10:25:45;;;;;;;45.30;25.25;;;5.60;99.90;;;;;;4969545;28;20133;-80
2022/12/09 10:28:18;;;;;;;41.90;25.05;;;5.70;99.90;;;;;;4973466;28;20133;-81
2022/12/09 10:30:45;;;;;;;42.97;24.85;;;5.70;99.90;;;;;;4976611;28;20039;-79
2022/12/09 10:33:12;;;;;;;43.83;24.48;;;5.70;99.90;;;;;;4977774;28;20042;-79
2022/12/09 10:35:39;;;;;;;45.28;25.95;;;5.70;99.90;;;;;;4973246;28;20078;-79
2022/12/09 10:38:08;;;;;;;45.85;25.70;;;5.90;99.90;;;;;;4972590;28;20522;-79
2022/12/09 10:40:40;;;;;;;51.88;25.35;;;5.80;99.90;;;;;;4964478;28;20495;-79
2022/12/09 10:43:35;;;;;;;42.17;24.52;;;6.00;99.90;;;;;;4969236;28;20043;-80
2022/12/09 10:46:05;;;;;;;45.97;25.80;;;5.80;99.90;;;;;;4957022;28;20511;-79
2022/12/09 10:48:33;;;;;;;47.53;25.48;;;5.90;99.90;;;;;;4974752;28;20070;-80
2022/12/09 10:51:02;;;;;;;43.95;25.25;;;5.90;99.90;;;;;;4981382;28;20061;-80
2022/12/09 10:53:30;;;;;;;49.30;26.42;;;5.90;99.90;;;;;;4976417;28;20137;-79
2022/12/09 10:55:59;;;;;;;47.10;25.65;;;5.90;99.90;;;;;;4987914;28;20053;-80
2022/12/09 10:58:29;;;;;;;48.25;26.55;;;5.90;99.90;;;;;;4972284;28;20053;-79
2022/12/09 11:01:06;;;;;;;45.40;26.92;;;6.00;99.90;;;;;;4972243;28;20051;-80
2022/12/09 11:03:35;;;;;;;45.50;25.48;;;6.00;99.90;;;;;;4974023;28;20082;-78
2022/12/09 11:06:05;;;;;;;46.28;24.27;;;6.00;99.90;;;;;;4974325;28;20046;-81
2022/12/09 11:08:32;;;;;;;37.03;21.30;;;6.00;99.90;;;;;;4983331;28;20133;-81
2022/12/09 11:11:00;;;;;;;37.97;18.83;;;6.00;99.90;;;;;;4975143;28;20066;-81
2022/12/09 11:13:43;;;;;;;38.70;21.45;;;6.10;99.90;;;;;;4977893;28;20070;-81
2022/12/09 11:16:11;;;;;;;33.63;17.40;;;6.10;99.90;;;;;;4977842;28;20053;-80
2022/12/09 11:18:43;;;;;;;32.42;17.75;;;6.10;99.90;;;;;;4990811;28;20411;-80
2022/12/09 11:21:32;;;;;;;33.97;18.77;;;6.10;99.90;;;;;;4981228;28;20061;-80
2022/12/09 11:23:59;;;;;;;38.20;17.27;;;6.10;99.90;;;;;;4982917;28;20050;-81
2022/12/09 11:26:33;;;;;;;32.83;16.73;;;6.10;99.90;;;;;;4975379;28;20118;-81
2022/12/09 11:29:04;;;;;;;28.40;16.60;;;6.10;99.90;;;;;;4975021;28;20077;-87
2022/12/09 11:31:33;;;;;;;26.42;14.68;;;6.20;99.90;;;;;;4973651;28;20051;-82
2022/12/09 11:34:03;;;;;;;24.92;14.80;;;6.20;99.90;;;;;;4978557;28;20050;-83
2022/12/09 11:36:32;;;;;;;24.52;11.57;;;6.20;99.90;;;;;;4980653;28;20042;-83
2022/12/09 11:39:16;;;;;;;22.98;13.05;;;6.20;99.90;;;;;;4976619;28;20626;-83
2022/12/09 11:44:44;;;;;;;24.10;14.07;;;6.20;99.90;;;;;;4970213;28;20042;-81
2022/12/09 11:47:13;;;;;;;25.65;13.05;;;6.20;99.90;;;;;;4991789;28;20125;-81
2022/12/09 11:49:47;;;;;;;23.98;12.60;;;6.20;99.90;;;;;;4980668;28;20047;-81
2022/12/09 11:52:26;;;;;;;23.77;13.23;;;6.20;99.90;;;;;;4969732;28;20133;-81
2022/12/09 11:55:09;;;;;;;22.25;13.50;;;6.20;99.90;;;;;;4979313;28;20106;-81
2022/12/09 11:57:52;;;;;;;27.20;14.48;;;6.20;99.90;;;;;;4983061;28;20039;-79
2022/12/09 12:00:23;;;;;;;24.83;13.80;;;6.20;99.90;;;;;;4953446;28;20101;-81
2022/12/09 12:02:59;;;;;;;27.10;14.30;;;6.20;99.90;;;;;;4972158;28;20426;-81
2022/12/09 12:05:31;;;;;;;23.20;13.98;;;6.20;99.90;;;;;;4982998;28;20129;-81
2022/12/09 12:08:05;;;;;;;26.65;15.93;;;6.30;99.90;;;;;;4983747;28;20072;-81
2022/12/09 12:10:35;;;;;;;25.75;14.98;;;6.20;99.90;;;;;;4970882;28;20489;-81
2022/12/09 12:13:10;;;;;;;28.17;14.50;;;6.30;99.90;;;;;;4970915;28;20054;-82
2022/12/09 12:15:48;;;;;;;25.73;15.00;;;6.30;99.90;;;;;;4991034;28;20618;-82
2022/12/09 12:18:19;;;;;;;28.45;15.30;;;6.30;99.90;;;;;;4980770;28;20600;-82
2022/12/09 12:21:16;;;;;;;24.42;14.93;;;6.30;99.90;;;;;;4968691;28;20043;-80
2022/12/09 12:24:03;;;;;;;31.38;17.58;;;6.30;99.90;;;;;;4969188;28;20074;-80
2022/12/09 12:26:37;;;;;;;30.88;17.73;;;6.30;99.90;;;;;;4987020;28;20053;-80
2022/12/09 12:29:22;;;;;;;29.75;16.92;;;6.30;99.90;;;;;;4960797;28;20422;-80
2022/12/09 12:32:07;;;;;;;27.98;14.95;;;6.30;99.90;;;;;;4971853;28;20053;-80
2022/12/09 12:34:39;;;;;;;24.05;13.90;;;6.30;99.90;;;;;;4976759;28;20074;-80
2022/12/09 12:37:18;;;;;;;27.52;15.18;;;6.30;99.90;;;;;;4963465;28;20137;-80
2022/12/09 12:39:53;;;;;;;28.88;15.45;;;6.30;99.90;;;;;;4969935;28;20150;-80
2022/12/09 12:42:28;;;;;;;27.13;15.32;;;6.40;99.90;;;;;;4969560;28;20126;-81
2022/12/09 12:47:52;;;;;;;32.13;14.70;;;6.30;99.90;;;;;;4980446;28;20042;-80
2022/12/09 12:50:38;;;;;;;24.05;15.05;;;6.30;99.90;;;;;;4965470;28;20047;-80
2022/12/09 12:53:13;;;;;;;25.65;14.75;;;6.30;99.90;;;;;;4971134;28;20050;-81
2022/12/09 12:55:48;;;;;;;24.75;14.15;;;6.40;99.90;;;;;;4982320;28;20104;-84
2022/12/09 12:58:19;;;;;;;25.63;14.30;;;6.40;99.90;;;;;;4971550;28;20518;-83
2022/12/09 13:00:57;;;;;;;24.67;15.02;;;6.40;99.90;;;;;;4970339;28;20043;-82